sensor_id;sensor_type;location;lat;lon;timestamp;temperature;humidity
12632;DHT22;6381;45.748;12.106;2022-08-26T00:01:58;27.00;84.50
12632;DHT22;6381;45.748;12.106;2022-08-26T00:04:29;27.00;84.80
12632;DHT22;6381;45.748;12.106;2022-08-26T00:06:58;27.00;85.10
12632;DHT22;6381;45.748;12.106;2022-08-26T00:09:28;26.90;85.10
12632;DHT22;6381;45.748;12.106;2022-08-26T00:11:57;26.90;84.80
12632;DHT22;6381;45.748;12.106;2022-08-26T00:14:26;26.70;85.50
12632;DHT22;6381;45.748;12.106;2022-08-26T00:16:57;26.60;86.50
12632;DHT22;6381;45.748;12.106;2022-08-26T00:19:26;26.50;87.60
12632;DHT22;6381;45.748;12.106;2022-08-26T00:21:57;26.50;88.40
12632;DHT22;6381;45.748;12.106;2022-08-26T00:24:25;26.60;88.30
12632;DHT22;6381;45.748;12.106;2022-08-26T00:26:54;26.70;88.00
12632;DHT22;6381;45.748;12.106;2022-08-26T00:29:24;26.70;89.00
12632;DHT22;6381;45.748;12.106;2022-08-26T00:31:53;26.80;87.50
12632;DHT22;6381;45.748;12.106;2022-08-26T00:34:22;26.70;88.30
12632;DHT22;6381;45.748;12.106;2022-08-26T00:36:51;26.80;88.20
12632;DHT22;6381;45.748;12.106;2022-08-26T00:39:21;26.70;88.90
12632;DHT22;6381;45.748;12.106;2022-08-26T00:41:50;26.80;87.80
12632;DHT22;6381;45.748;12.106;2022-08-26T00:44:20;26.80;88.70
12632;DHT22;6381;45.748;12.106;2022-08-26T00:46:53;26.80;87.90
12632;DHT22;6381;45.748;12.106;2022-08-26T00:49:28;26.80;87.00
12632;DHT22;6381;45.748;12.106;2022-08-26T00:52:00;26.70;86.70
12632;DHT22;6381;45.748;12.106;2022-08-26T00:54:38;26.50;87.30
12632;DHT22;6381;45.748;12.106;2022-08-26T00:57:14;26.40;87.90
12632;DHT22;6381;45.748;12.106;2022-08-26T00:59:44;26.40;88.40
12632;DHT22;6381;45.748;12.106;2022-08-26T01:02:14;26.50;88.00
12632;DHT22;6381;45.748;12.106;2022-08-26T01:04:48;26.40;88.10
12632;DHT22;6381;45.748;12.106;2022-08-26T01:07:24;26.40;88.80
12632;DHT22;6381;45.748;12.106;2022-08-26T01:09:58;26.20;89.70
12632;DHT22;6381;45.748;12.106;2022-08-26T01:12:35;26.10;90.10
12632;DHT22;6381;45.748;12.106;2022-08-26T01:15:08;26.10;90.20
12632;DHT22;6381;45.748;12.106;2022-08-26T01:17:38;26.10;90.40
12632;DHT22;6381;45.748;12.106;2022-08-26T01:20:18;26.20;90.60
12632;DHT22;6381;45.748;12.106;2022-08-26T01:22:55;26.10;90.80
12632;DHT22;6381;45.748;12.106;2022-08-26T01:25:30;26.00;91.20
12632;DHT22;6381;45.748;12.106;2022-08-26T01:28:02;26.00;91.60
12632;DHT22;6381;45.748;12.106;2022-08-26T01:30:33;26.00;91.60
12632;DHT22;6381;45.748;12.106;2022-08-26T01:33:05;26.00;91.60
12632;DHT22;6381;45.748;12.106;2022-08-26T01:35:37;26.00;91.60
12632;DHT22;6381;45.748;12.106;2022-08-26T01:38:08;25.90;91.50
12632;DHT22;6381;45.748;12.106;2022-08-26T01:40:39;25.80;91.60
12632;DHT22;6381;45.748;12.106;2022-08-26T01:43:13;25.80;91.80
12632;DHT22;6381;45.748;12.106;2022-08-26T01:45:44;25.70;91.80
12632;DHT22;6381;45.748;12.106;2022-08-26T01:48:16;25.70;91.80
12632;DHT22;6381;45.748;12.106;2022-08-26T01:50:47;26.00;91.80
12632;DHT22;6381;45.748;12.106;2022-08-26T01:53:18;26.10;91.50
12632;DHT22;6381;45.748;12.106;2022-08-26T01:55:50;26.20;91.40
12632;DHT22;6381;45.748;12.106;2022-08-26T01:58:22;26.00;91.30
12632;DHT22;6381;45.748;12.106;2022-08-26T02:00:52;25.90;91.30
12632;DHT22;6381;45.748;12.106;2022-08-26T02:03:22;25.80;91.60
12632;DHT22;6381;45.748;12.106;2022-08-26T02:05:53;25.90;91.80
12632;DHT22;6381;45.748;12.106;2022-08-26T02:08:29;26.10;91.10
12632;DHT22;6381;45.748;12.106;2022-08-26T02:10:59;26.00;91.70
12632;DHT22;6381;45.748;12.106;2022-08-26T02:13:30;26.00;91.50
12632;DHT22;6381;45.748;12.106;2022-08-26T02:16:01;25.90;91.70
12632;DHT22;6381;45.748;12.106;2022-08-26T02:18:33;26.00;91.80
12632;DHT22;6381;45.748;12.106;2022-08-26T02:21:03;26.00;91.50
12632;DHT22;6381;45.748;12.106;2022-08-26T02:23:34;26.10;91.80
12632;DHT22;6381;45.748;12.106;2022-08-26T02:26:07;26.00;91.60
12632;DHT22;6381;45.748;12.106;2022-08-26T02:28:41;25.80;91.40
12632;DHT22;6381;45.748;12.106;2022-08-26T02:31:12;25.80;91.80
12632;DHT22;6381;45.748;12.106;2022-08-26T02:33:41;25.90;91.70
12632;DHT22;6381;45.748;12.106;2022-08-26T02:36:10;28.20;92.70
12632;DHT22;6381;45.748;12.106;2022-08-26T02:38:43;25.70;91.80
12632;DHT22;6381;45.748;12.106;2022-08-26T02:41:12;25.70;91.80
12632;DHT22;6381;45.748;12.106;2022-08-26T02:43:44;25.50;91.80
12632;DHT22;6381;45.748;12.106;2022-08-26T02:46:13;25.20;92.60
12632;DHT22;6381;45.748;12.106;2022-08-26T02:48:56;25.10;93.00
12632;DHT22;6381;45.748;12.106;2022-08-26T02:51:25;24.90;93.80
12632;DHT22;6381;45.748;12.106;2022-08-26T02:53:55;24.80;94.10
12632;DHT22;6381;45.748;12.106;2022-08-26T02:56:25;24.80;94.40
12632;DHT22;6381;45.748;12.106;2022-08-26T02:58:54;24.90;94.50
12632;DHT22;6381;45.748;12.106;2022-08-26T03:01:26;24.90;94.70
12632;DHT22;6381;45.748;12.106;2022-08-26T03:03:56;25.20;94.30
12632;DHT22;6381;45.748;12.106;2022-08-26T03:06:26;25.40;93.70
12632;DHT22;6381;45.748;12.106;2022-08-26T03:08:56;25.20;93.40
12632;DHT22;6381;45.748;12.106;2022-08-26T03:11:26;25.20;93.60
12632;DHT22;6381;45.748;12.106;2022-08-26T03:13:59;24.90;93.50
12632;DHT22;6381;45.748;12.106;2022-08-26T03:16:31;24.80;93.90
12632;DHT22;6381;45.748;12.106;2022-08-26T03:19:01;24.70;94.30
12632;DHT22;6381;45.748;12.106;2022-08-26T03:21:30;24.70;94.40
12632;DHT22;6381;45.748;12.106;2022-08-26T03:24:00;24.80;94.20
12632;DHT22;6381;45.748;12.106;2022-08-26T03:26:30;25.10;93.90
12632;DHT22;6381;45.748;12.106;2022-08-26T03:28:58;25.10;94.10
12632;DHT22;6381;45.748;12.106;2022-08-26T03:31:45;25.10;94.00
12632;DHT22;6381;45.748;12.106;2022-08-26T03:34:15;25.10;93.80
12632;DHT22;6381;45.748;12.106;2022-08-26T03:36:45;25.10;94.10
12632;DHT22;6381;45.748;12.106;2022-08-26T03:39:16;25.00;94.40
12632;DHT22;6381;45.748;12.106;2022-08-26T03:41:44;24.90;94.60
12632;DHT22;6381;45.748;12.106;2022-08-26T03:44:13;24.90;94.50
12632;DHT22;6381;45.748;12.106;2022-08-26T03:46:43;24.90;94.50
12632;DHT22;6381;45.748;12.106;2022-08-26T03:49:12;24.90;94.50
12632;DHT22;6381;45.748;12.106;2022-08-26T03:51:41;24.80;94.70
12632;DHT22;6381;45.748;12.106;2022-08-26T03:54:10;24.90;94.80
12632;DHT22;6381;45.748;12.106;2022-08-26T03:56:41;24.80;94.50
12632;DHT22;6381;45.748;12.106;2022-08-26T03:59:12;24.90;94.50
12632;DHT22;6381;45.748;12.106;2022-08-26T04:01:41;24.80;94.60
12632;DHT22;6381;45.748;12.106;2022-08-26T04:04:11;24.70;94.90
12632;DHT22;6381;45.748;12.106;2022-08-26T04:06:41;24.70;95.20
12632;DHT22;6381;45.748;12.106;2022-08-26T04:09:12;24.80;95.50
12632;DHT22;6381;45.748;12.106;2022-08-26T04:11:44;24.90;95.10
12632;DHT22;6381;45.748;12.106;2022-08-26T04:14:19;24.90;94.80
12632;DHT22;6381;45.748;12.106;2022-08-26T04:16:49;24.70;95.20
12632;DHT22;6381;45.748;12.106;2022-08-26T04:19:19;24.80;95.40
12632;DHT22;6381;45.748;12.106;2022-08-26T04:21:49;24.80;95.50
12632;DHT22;6381;45.748;12.106;2022-08-26T04:24:20;24.80;95.60
12632;DHT22;6381;45.748;12.106;2022-08-26T04:26:51;24.80;95.80
12632;DHT22;6381;45.748;12.106;2022-08-26T04:29:22;24.80;95.10
12632;DHT22;6381;45.748;12.106;2022-08-26T04:31:52;24.70;95.20
12632;DHT22;6381;45.748;12.106;2022-08-26T04:34:23;24.60;95.30
12632;DHT22;6381;45.748;12.106;2022-08-26T04:36:55;24.50;95.40
12632;DHT22;6381;45.748;12.106;2022-08-26T04:39:24;24.70;95.70
12632;DHT22;6381;45.748;12.106;2022-08-26T04:41:55;24.70;95.80
12632;DHT22;6381;45.748;12.106;2022-08-26T04:44:26;24.80;95.90
12632;DHT22;6381;45.748;12.106;2022-08-26T04:46:56;24.90;95.80
12632;DHT22;6381;45.748;12.106;2022-08-26T04:49:25;24.90;95.90
12632;DHT22;6381;45.748;12.106;2022-08-26T04:52:02;25.00;95.90
12632;DHT22;6381;45.748;12.106;2022-08-26T04:54:31;25.00;96.00
12632;DHT22;6381;45.748;12.106;2022-08-26T04:57:01;24.60;95.60
12632;DHT22;6381;45.748;12.106;2022-08-26T04:59:31;24.60;96.10
12632;DHT22;6381;45.748;12.106;2022-08-26T05:02:05;24.70;96.40
12632;DHT22;6381;45.748;12.106;2022-08-26T05:04:35;24.80;96.10
12632;DHT22;6381;45.748;12.106;2022-08-26T05:07:05;24.50;96.00
12632;DHT22;6381;45.748;12.106;2022-08-26T05:09:35;24.50;95.90
12632;DHT22;6381;45.748;12.106;2022-08-26T05:12:06;24.70;95.70
12632;DHT22;6381;45.748;12.106;2022-08-26T05:14:35;24.80;95.50
12632;DHT22;6381;45.748;12.106;2022-08-26T05:17:04;24.90;95.50
12632;DHT22;6381;45.748;12.106;2022-08-26T05:19:34;24.90;94.90
12632;DHT22;6381;45.748;12.106;2022-08-26T05:22:08;25.10;94.60
12632;DHT22;6381;45.748;12.106;2022-08-26T05:24:39;25.00;94.50
12632;DHT22;6381;45.748;12.106;2022-08-26T05:27:11;25.10;94.60
12632;DHT22;6381;45.748;12.106;2022-08-26T05:29:40;25.30;94.60
12632;DHT22;6381;45.748;12.106;2022-08-26T05:32:10;25.40;94.50
12632;DHT22;6381;45.748;12.106;2022-08-26T05:34:40;25.20;94.40
12632;DHT22;6381;45.748;12.106;2022-08-26T05:37:09;25.10;94.70
12632;DHT22;6381;45.748;12.106;2022-08-26T05:39:39;25.20;94.50
12632;DHT22;6381;45.748;12.106;2022-08-26T05:42:18;25.30;94.10
12632;DHT22;6381;45.748;12.106;2022-08-26T05:44:51;25.30;94.60
12632;DHT22;6381;45.748;12.106;2022-08-26T05:47:22;25.10;95.40
12632;DHT22;6381;45.748;12.106;2022-08-26T05:49:51;25.20;95.30
12632;DHT22;6381;45.748;12.106;2022-08-26T05:52:21;25.40;95.10
12632;DHT22;6381;45.748;12.106;2022-08-26T05:54:52;25.50;94.70
12632;DHT22;6381;45.748;12.106;2022-08-26T05:57:22;25.60;94.10
12632;DHT22;6381;45.748;12.106;2022-08-26T05:59:51;25.70;94.00
12632;DHT22;6381;45.748;12.106;2022-08-26T06:02:20;25.90;93.80
12632;DHT22;6381;45.748;12.106;2022-08-26T06:04:49;25.90;93.50
12632;DHT22;6381;45.748;12.106;2022-08-26T06:07:18;25.90;93.60
12632;DHT22;6381;45.748;12.106;2022-08-26T06:10:11;26.00;93.50
12632;DHT22;6381;45.748;12.106;2022-08-26T06:13:00;26.10;92.90
12632;DHT22;6381;45.748;12.106;2022-08-26T06:15:40;26.20;93.20
12632;DHT22;6381;45.748;12.106;2022-08-26T06:18:11;26.20;92.80
12632;DHT22;6381;45.748;12.106;2022-08-26T06:20:44;26.30;92.80
12632;DHT22;6381;45.748;12.106;2022-08-26T06:23:23;26.50;93.00
12632;DHT22;6381;45.748;12.106;2022-08-26T06:26:11;26.60;93.00
12632;DHT22;6381;45.748;12.106;2022-08-26T06:28:41;26.70;92.90
12632;DHT22;6381;45.748;12.106;2022-08-26T06:31:12;26.70;92.30
12632;DHT22;6381;45.748;12.106;2022-08-26T06:33:42;26.60;92.30
12632;DHT22;6381;45.748;12.106;2022-08-26T06:36:15;26.80;92.80
12632;DHT22;6381;45.748;12.106;2022-08-26T06:38:46;26.90;92.00
12632;DHT22;6381;45.748;12.106;2022-08-26T06:41:16;27.00;91.90
12632;DHT22;6381;45.748;12.106;2022-08-26T06:43:49;27.00;91.90
12632;DHT22;6381;45.748;12.106;2022-08-26T06:46:20;26.90;91.50
12632;DHT22;6381;45.748;12.106;2022-08-26T06:48:52;26.90;91.70
12632;DHT22;6381;45.748;12.106;2022-08-26T06:51:24;26.80;90.80
12632;DHT22;6381;45.748;12.106;2022-08-26T06:53:55;26.80;91.50
12632;DHT22;6381;45.748;12.106;2022-08-26T06:56:27;26.90;91.80
12632;DHT22;6381;45.748;12.106;2022-08-26T06:59:01;27.00;91.70
12632;DHT22;6381;45.748;12.106;2022-08-26T07:01:36;27.00;91.80
12632;DHT22;6381;45.748;12.106;2022-08-26T07:04:12;27.10;91.50
12632;DHT22;6381;45.748;12.106;2022-08-26T07:06:46;27.10;91.20
12632;DHT22;6381;45.748;12.106;2022-08-26T07:09:21;27.30;91.00
12632;DHT22;6381;45.748;12.106;2022-08-26T07:11:50;27.30;90.40
12632;DHT22;6381;45.748;12.106;2022-08-26T07:14:21;27.50;90.50
12632;DHT22;6381;45.748;12.106;2022-08-26T07:16:52;27.60;89.20
12632;DHT22;6381;45.748;12.106;2022-08-26T07:19:22;27.60;86.70
12632;DHT22;6381;45.748;12.106;2022-08-26T07:21:58;27.60;87.90
12632;DHT22;6381;45.748;12.106;2022-08-26T07:24:30;27.60;86.60
12632;DHT22;6381;45.748;12.106;2022-08-26T07:27:00;27.70;88.50
12632;DHT22;6381;45.748;12.106;2022-08-26T07:29:34;27.70;87.80
12632;DHT22;6381;45.748;12.106;2022-08-26T07:32:03;27.60;85.60
12632;DHT22;6381;45.748;12.106;2022-08-26T07:34:32;27.60;86.80
12632;DHT22;6381;45.748;12.106;2022-08-26T07:37:03;27.60;86.60
12632;DHT22;6381;45.748;12.106;2022-08-26T07:39:35;27.70;86.20
12632;DHT22;6381;45.748;12.106;2022-08-26T07:42:07;27.80;86.00
12632;DHT22;6381;45.748;12.106;2022-08-26T07:44:39;27.90;86.80
12632;DHT22;6381;45.748;12.106;2022-08-26T07:47:09;27.80;85.30
12632;DHT22;6381;45.748;12.106;2022-08-26T07:49:53;27.90;85.50
12632;DHT22;6381;45.748;12.106;2022-08-26T07:52:22;28.10;86.40
12632;DHT22;6381;45.748;12.106;2022-08-26T07:54:54;28.10;83.60
12632;DHT22;6381;45.748;12.106;2022-08-26T07:57:23;28.00;82.30
12632;DHT22;6381;45.748;12.106;2022-08-26T07:59:54;27.80;82.70
12632;DHT22;6381;45.748;12.106;2022-08-26T08:02:24;28.00;83.40
12632;DHT22;6381;45.748;12.106;2022-08-26T08:04:54;28.10;83.30
12632;DHT22;6381;45.748;12.106;2022-08-26T08:07:25;28.10;81.90
12632;DHT22;6381;45.748;12.106;2022-08-26T08:10:13;28.40;82.90
12632;DHT22;6381;45.748;12.106;2022-08-26T08:12:42;28.30;80.80
12632;DHT22;6381;45.748;12.106;2022-08-26T08:15:13;28.40;81.50
12632;DHT22;6381;45.748;12.106;2022-08-26T08:17:43;28.70;82.70
12632;DHT22;6381;45.748;12.106;2022-08-26T08:20:13;28.70;81.50
12632;DHT22;6381;45.748;12.106;2022-08-26T08:22:42;28.70;80.90
12632;DHT22;6381;45.748;12.106;2022-08-26T08:25:13;28.70;81.10
12632;DHT22;6381;45.748;12.106;2022-08-26T08:27:43;28.90;79.10
12632;DHT22;6381;45.748;12.106;2022-08-26T08:30:15;28.90;80.00
12632;DHT22;6381;45.748;12.106;2022-08-26T08:32:49;29.10;80.50
12632;DHT22;6381;45.748;12.106;2022-08-26T08:35:19;28.90;76.60
12632;DHT22;6381;45.748;12.106;2022-08-26T08:37:49;29.10;76.80
12632;DHT22;6381;45.748;12.106;2022-08-26T08:42:48;29.30;79.00
12632;DHT22;6381;45.748;12.106;2022-08-26T08:45:31;29.40;78.50
12632;DHT22;6381;45.748;12.106;2022-08-26T08:48:05;29.30;79.30
12632;DHT22;6381;45.748;12.106;2022-08-26T08:50:42;29.60;75.60
12632;DHT22;6381;45.748;12.106;2022-08-26T08:53:16;29.40;75.30
12632;DHT22;6381;45.748;12.106;2022-08-26T08:55:56;29.40;75.70
12632;DHT22;6381;45.748;12.106;2022-08-26T08:58:52;29.30;76.90
12632;DHT22;6381;45.748;12.106;2022-08-26T09:01:40;29.20;76.30
12632;DHT22;6381;45.748;12.106;2022-08-26T09:07:12;29.70;73.00
12632;DHT22;6381;45.748;12.106;2022-08-26T09:09:46;29.70;76.50
12632;DHT22;6381;45.748;12.106;2022-08-26T09:12:20;29.70;73.20
12632;DHT22;6381;45.748;12.106;2022-08-26T09:15:01;29.70;74.50
12632;DHT22;6381;45.748;12.106;2022-08-26T09:17:45;29.80;74.60
12632;DHT22;6381;45.748;12.106;2022-08-26T09:20:26;29.50;71.30
12632;DHT22;6381;45.748;12.106;2022-08-26T09:22:59;29.60;72.90
12632;DHT22;6381;45.748;12.106;2022-08-26T09:25:28;30.10;74.30
12632;DHT22;6381;45.748;12.106;2022-08-26T09:27:57;30.10;73.90
12632;DHT22;6381;45.748;12.106;2022-08-26T09:30:32;29.90;70.40
12632;DHT22;6381;45.748;12.106;2022-08-26T09:33:04;30.10;70.60
12632;DHT22;6381;45.748;12.106;2022-08-26T09:35:39;30.20;73.20
12632;DHT22;6381;45.748;12.106;2022-08-26T09:38:21;30.10;68.50
12632;DHT22;6381;45.748;12.106;2022-08-26T09:40:55;30.40;70.70
12632;DHT22;6381;45.748;12.106;2022-08-26T09:43:25;30.60;70.70
12632;DHT22;6381;45.748;12.106;2022-08-26T09:46:12;30.10;68.40
12632;DHT22;6381;45.748;12.106;2022-08-26T09:48:41;30.00;70.10
12632;DHT22;6381;45.748;12.106;2022-08-26T09:51:26;29.80;69.10
12632;DHT22;6381;45.748;12.106;2022-08-26T09:53:59;30.00;70.50
12632;DHT22;6381;45.748;12.106;2022-08-26T09:56:30;30.20;70.30
12632;DHT22;6381;45.748;12.106;2022-08-26T09:59:02;30.60;70.20
12632;DHT22;6381;45.748;12.106;2022-08-26T10:01:36;30.80;69.60
12632;DHT22;6381;45.748;12.106;2022-08-26T10:04:11;30.90;69.50
12632;DHT22;6381;45.748;12.106;2022-08-26T10:06:42;31.00;68.80
12632;DHT22;6381;45.748;12.106;2022-08-26T10:09:16;30.60;68.20
12632;DHT22;6381;45.748;12.106;2022-08-26T10:11:49;30.90;68.10
12632;DHT22;6381;45.748;12.106;2022-08-26T10:14:23;31.10;67.30
12632;DHT22;6381;45.748;12.106;2022-08-26T10:16:59;30.90;65.90
12632;DHT22;6381;45.748;12.106;2022-08-26T10:19:37;31.00;70.20
12632;DHT22;6381;45.748;12.106;2022-08-26T10:22:36;31.00;66.40
12632;DHT22;6381;45.748;12.106;2022-08-26T10:25:13;30.90;67.90
12632;DHT22;6381;45.748;12.106;2022-08-26T10:27:47;30.20;65.10
12632;DHT22;6381;45.748;12.106;2022-08-26T10:30:21;30.40;67.70
12632;DHT22;6381;45.748;12.106;2022-08-26T10:32:55;30.60;65.90
12632;DHT22;6381;45.748;12.106;2022-08-26T10:35:26;30.80;67.70
12632;DHT22;6381;45.748;12.106;2022-08-26T10:37:57;31.50;68.60
12632;DHT22;6381;45.748;12.106;2022-08-26T10:40:40;31.80;64.60
12632;DHT22;6381;45.748;12.106;2022-08-26T10:43:19;31.60;67.90
12632;DHT22;6381;45.748;12.106;2022-08-26T10:45:53;31.20;66.60
12632;DHT22;6381;45.748;12.106;2022-08-26T10:48:31;31.20;66.20
12632;DHT22;6381;45.748;12.106;2022-08-26T10:51:02;30.60;67.40
12632;DHT22;6381;45.748;12.106;2022-08-26T10:53:40;30.20;66.10
12632;DHT22;6381;45.748;12.106;2022-08-26T10:56:26;30.30;64.90
12632;DHT22;6381;45.748;12.106;2022-08-26T10:59:05;30.60;64.30
12632;DHT22;6381;45.748;12.106;2022-08-26T11:01:44;30.80;63.80
12632;DHT22;6381;45.748;12.106;2022-08-26T11:07:36;31.30;64.60
12632;DHT22;6381;45.748;12.106;2022-08-26T11:12:57;31.20;63.80
12632;DHT22;6381;45.748;12.106;2022-08-26T11:18:42;31.10;64.20
12632;DHT22;6381;45.748;12.106;2022-08-26T11:21:48;31.40;65.20
12632;DHT22;6381;45.748;12.106;2022-08-26T11:24:59;31.80;63.90
12632;DHT22;6381;45.748;12.106;2022-08-26T11:28:01;32.30;64.40
12632;DHT22;6381;45.748;12.106;2022-08-26T11:30:54;32.50;65.00
12632;DHT22;6381;45.748;12.106;2022-08-26T11:33:55;32.50;60.80
12632;DHT22;6381;45.748;12.106;2022-08-26T11:36:57;32.70;64.50
12632;DHT22;6381;45.748;12.106;2022-08-26T11:39:33;33.10;63.70
12632;DHT22;6381;45.748;12.106;2022-08-26T11:42:18;33.00;59.50
12632;DHT22;6381;45.748;12.106;2022-08-26T11:44:49;33.30;62.70
12632;DHT22;6381;45.748;12.106;2022-08-26T11:47:26;33.50;61.10
12632;DHT22;6381;45.748;12.106;2022-08-26T11:50:14;32.90;56.60
12632;DHT22;6381;45.748;12.106;2022-08-26T11:53:02;33.20;59.00
12632;DHT22;6381;45.748;12.106;2022-08-26T11:55:35;33.90;57.00
12632;DHT22;6381;45.748;12.106;2022-08-26T11:58:11;34.10;57.40
12632;DHT22;6381;45.748;12.106;2022-08-26T12:00:49;34.30;55.40
12632;DHT22;6381;45.748;12.106;2022-08-26T12:03:22;33.90;54.80
12632;DHT22;6381;45.748;12.106;2022-08-26T12:05:53;33.40;54.90
12632;DHT22;6381;45.748;12.106;2022-08-26T12:08:27;33.90;57.70
12632;DHT22;6381;45.748;12.106;2022-08-26T12:11:05;34.30;55.00
12632;DHT22;6381;45.748;12.106;2022-08-26T12:13:36;34.90;57.30
12632;DHT22;6381;45.748;12.106;2022-08-26T12:16:06;34.50;55.80
12632;DHT22;6381;45.748;12.106;2022-08-26T12:18:37;34.90;55.40
12632;DHT22;6381;45.748;12.106;2022-08-26T12:21:13;35.00;54.60
12632;DHT22;6381;45.748;12.106;2022-08-26T12:23:47;35.40;54.40
12632;DHT22;6381;45.748;12.106;2022-08-26T12:26:22;34.90;54.40
12632;DHT22;6381;45.748;12.106;2022-08-26T12:28:54;35.10;52.10
12632;DHT22;6381;45.748;12.106;2022-08-26T12:31:29;35.30;53.90
12632;DHT22;6381;45.748;12.106;2022-08-26T12:34:00;35.60;50.90
12632;DHT22;6381;45.748;12.106;2022-08-26T12:36:32;35.50;49.80
12632;DHT22;6381;45.748;12.106;2022-08-26T12:39:09;35.60;52.90
12632;DHT22;6381;45.748;12.106;2022-08-26T12:41:50;35.70;51.00
12632;DHT22;6381;45.748;12.106;2022-08-26T12:44:33;35.80;48.30
12632;DHT22;6381;45.748;12.106;2022-08-26T12:47:06;36.80;49.90
12632;DHT22;6381;45.748;12.106;2022-08-26T12:49:37;37.30;47.10
12632;DHT22;6381;45.748;12.106;2022-08-26T12:52:19;36.70;48.40
12632;DHT22;6381;45.748;12.106;2022-08-26T12:54:59;35.80;51.70
12632;DHT22;6381;45.748;12.106;2022-08-26T12:57:31;36.40;49.30
12632;DHT22;6381;45.748;12.106;2022-08-26T13:00:24;36.60;49.90
12632;DHT22;6381;45.748;12.106;2022-08-26T13:02:56;37.40;47.20
12632;DHT22;6381;45.748;12.106;2022-08-26T13:05:27;37.10;48.10
12632;DHT22;6381;45.748;12.106;2022-08-26T13:08:13;36.60;49.30
12632;DHT22;6381;45.748;12.106;2022-08-26T13:10:46;36.50;45.80
12632;DHT22;6381;45.748;12.106;2022-08-26T13:13:15;36.30;49.20
12632;DHT22;6381;45.748;12.106;2022-08-26T13:15:44;36.60;47.70
12632;DHT22;6381;45.748;12.106;2022-08-26T13:18:12;36.80;45.70
12632;DHT22;6381;45.748;12.106;2022-08-26T13:20:42;37.30;48.00
12632;DHT22;6381;45.748;12.106;2022-08-26T13:23:11;37.10;46.00
12632;DHT22;6381;45.748;12.106;2022-08-26T13:25:41;37.30;47.70
12632;DHT22;6381;45.748;12.106;2022-08-26T13:28:11;37.00;46.20
12632;DHT22;6381;45.748;12.106;2022-08-26T13:30:43;36.80;46.90
12632;DHT22;6381;45.748;12.106;2022-08-26T13:33:13;36.90;48.30
12632;DHT22;6381;45.748;12.106;2022-08-26T13:35:44;37.10;46.50
12632;DHT22;6381;45.748;12.106;2022-08-26T13:38:13;36.80;46.10
12632;DHT22;6381;45.748;12.106;2022-08-26T13:40:59;35.90;45.80
12632;DHT22;6381;45.748;12.106;2022-08-26T13:43:30;37.20;45.20
12632;DHT22;6381;45.748;12.106;2022-08-26T13:46:00;36.30;46.70
12632;DHT22;6381;45.748;12.106;2022-08-26T13:48:30;36.10;47.20
12632;DHT22;6381;45.748;12.106;2022-08-26T13:51:00;35.70;48.10
12632;DHT22;6381;45.748;12.106;2022-08-26T13:53:35;35.90;47.20
12632;DHT22;6381;45.748;12.106;2022-08-26T13:56:07;37.10;45.10
12632;DHT22;6381;45.748;12.106;2022-08-26T13:58:38;37.80;45.60
12632;DHT22;6381;45.748;12.106;2022-08-26T14:01:08;38.20;42.70
12632;DHT22;6381;45.748;12.106;2022-08-26T14:03:37;38.30;42.70
12632;DHT22;6381;45.748;12.106;2022-08-26T14:06:06;38.30;42.70
12632;DHT22;6381;45.748;12.106;2022-08-26T14:08:35;38.70;41.90
12632;DHT22;6381;45.748;12.106;2022-08-26T14:11:04;38.80;41.70
12632;DHT22;6381;45.748;12.106;2022-08-26T14:13:34;38.40;41.70
12632;DHT22;6381;45.748;12.106;2022-08-26T14:16:09;37.90;42.80
12632;DHT22;6381;45.748;12.106;2022-08-26T14:18:40;37.60;43.10
12632;DHT22;6381;45.748;12.106;2022-08-26T14:21:16;38.20;43.60
12632;DHT22;6381;45.748;12.106;2022-08-26T14:23:45;37.50;44.20
12632;DHT22;6381;45.748;12.106;2022-08-26T14:26:14;38.20;43.00
12632;DHT22;6381;45.748;12.106;2022-08-26T14:28:56;37.40;41.80
12632;DHT22;6381;45.748;12.106;2022-08-26T14:31:27;37.40;43.50
12632;DHT22;6381;45.748;12.106;2022-08-26T14:34:00;36.50;43.50
12632;DHT22;6381;45.748;12.106;2022-08-26T14:36:30;36.30;41.70
12632;DHT22;6381;45.748;12.106;2022-08-26T14:39:02;35.70;44.10
12632;DHT22;6381;45.748;12.106;2022-08-26T14:41:32;35.20;44.70
12632;DHT22;6381;45.748;12.106;2022-08-26T14:44:05;35.00;45.10
12632;DHT22;6381;45.748;12.106;2022-08-26T14:46:41;35.30;43.80
12632;DHT22;6381;45.748;12.106;2022-08-26T14:49:11;35.00;43.90
12632;DHT22;6381;45.748;12.106;2022-08-26T14:51:40;35.30;44.90
12632;DHT22;6381;45.748;12.106;2022-08-26T14:54:09;35.40;44.20
12632;DHT22;6381;45.748;12.106;2022-08-26T14:56:47;35.70;44.20
12632;DHT22;6381;45.748;12.106;2022-08-26T14:59:23;36.00;43.60
12632;DHT22;6381;45.748;12.106;2022-08-26T15:01:55;36.30;44.00
12632;DHT22;6381;45.748;12.106;2022-08-26T15:04:24;35.90;43.40
12632;DHT22;6381;45.748;12.106;2022-08-26T15:06:54;35.90;44.50
12632;DHT22;6381;45.748;12.106;2022-08-26T15:09:24;36.30;43.80
12632;DHT22;6381;45.748;12.106;2022-08-26T15:11:53;37.30;43.80
12632;DHT22;6381;45.748;12.106;2022-08-26T15:14:22;36.80;43.40
12632;DHT22;6381;45.748;12.106;2022-08-26T15:16:56;37.40;43.70
12632;DHT22;6381;45.748;12.106;2022-08-26T15:19:28;37.60;42.60
12632;DHT22;6381;45.748;12.106;2022-08-26T15:21:57;37.80;43.00
12632;DHT22;6381;45.748;12.106;2022-08-26T15:24:26;37.90;42.50
12632;DHT22;6381;45.748;12.106;2022-08-26T15:26:56;37.90;43.20
12632;DHT22;6381;45.748;12.106;2022-08-26T15:29:25;38.10;42.40
12632;DHT22;6381;45.748;12.106;2022-08-26T15:31:55;37.80;42.30
12632;DHT22;6381;45.748;12.106;2022-08-26T15:34:24;38.40;42.50
12632;DHT22;6381;45.748;12.106;2022-08-26T15:36:53;38.60;42.70
12632;DHT22;6381;45.748;12.106;2022-08-26T15:39:22;37.80;42.50
12632;DHT22;6381;45.748;12.106;2022-08-26T15:41:51;37.60;41.90
12632;DHT22;6381;45.748;12.106;2022-08-26T15:44:23;38.10;41.40
12632;DHT22;6381;45.748;12.106;2022-08-26T15:46:54;38.50;40.10
12632;DHT22;6381;45.748;12.106;2022-08-26T15:49:25;38.80;41.60
12632;DHT22;6381;45.748;12.106;2022-08-26T15:51:54;38.20;40.40
12632;DHT22;6381;45.748;12.106;2022-08-26T15:54:23;37.60;42.20
12632;DHT22;6381;45.748;12.106;2022-08-26T15:56:52;36.60;43.50
12632;DHT22;6381;45.748;12.106;2022-08-26T15:59:22;35.60;44.10
12632;DHT22;6381;45.748;12.106;2022-08-26T16:01:51;34.80;46.60
12632;DHT22;6381;45.748;12.106;2022-08-26T16:04:21;33.80;48.30
12632;DHT22;6381;45.748;12.106;2022-08-26T16:06:51;33.60;49.70
12632;DHT22;6381;45.748;12.106;2022-08-26T16:09:21;33.30;50.50
12632;DHT22;6381;45.748;12.106;2022-08-26T16:11:53;32.90;51.80
12632;DHT22;6381;45.748;12.106;2022-08-26T16:14:23;32.50;53.00
12632;DHT22;6381;45.748;12.106;2022-08-26T16:16:52;32.20;53.60
12632;DHT22;6381;45.748;12.106;2022-08-26T16:19:24;32.20;54.30
12632;DHT22;6381;45.748;12.106;2022-08-26T16:21:52;32.20;55.20